Time;durP1;ratioP1;P1;durP2;ratioP2;P2;SDS_P1;SDS_P2;PMS_P1;PMS_P2;Temp;Humidity;BMP_temperature;BMP_pressure;BME280_temperature;BME280_humidity;BME280_pressure;Samples;Min_cycle;Max_cycle;Signal;HPM_P1;HPM_P2
2020/12/12 00:02:16;;;;;;;16.67;10.13;;;4.60;99.90;;;;;;5074366;28;20567;-73
2020/12/12 00:04:42;;;;;;;18.20;9.57;;;4.60;99.90;;;;;;5079054;28;20220;-73
2020/12/12 00:07:09;;;;;;;15.90;10.10;;;4.60;99.90;;;;;;5081045;28;20292;-74
2020/12/12 00:09:36;;;;;;;17.33;10.10;;;4.60;99.90;;;;;;5074420;28;20207;-74
2020/12/12 00:12:04;;;;;;;16.87;9.57;;;4.60;99.90;;;;;;5088964;28;20629;-74
2020/12/12 00:14:30;;;;;;;17.80;9.37;;;4.60;99.90;;;;;;5076659;28;20198;-73
2020/12/12 00:16:56;;;;;;;17.03;9.87;;;4.60;99.90;;;;;;5081744;28;20335;-73
2020/12/12 00:19:25;;;;;;;14.83;9.57;;;4.60;99.90;;;;;;5075474;28;20236;-72
2020/12/12 00:21:52;;;;;;;17.23;10.33;;;4.60;99.90;;;;;;5079345;28;20235;-72
2020/12/12 00:24:19;;;;;;;15.00;9.80;;;4.70;99.90;;;;;;5085063;28;20703;-73
2020/12/12 00:26:46;;;;;;;17.40;9.93;;;4.60;99.90;;;;;;5078972;28;20210;-71
2020/12/12 00:29:13;;;;;;;16.90;9.70;;;4.70;99.90;;;;;;5069905;28;20213;-72
2020/12/12 00:31:39;;;;;;;16.23;9.77;;;4.70;99.90;;;;;;5088305;28;20201;-72
2020/12/12 00:34:06;;;;;;;18.43;10.30;;;4.70;99.90;;;;;;5088293;28;20277;-71
2020/12/12 00:36:38;;;;;;;15.90;9.43;;;4.70;99.90;;;;;;5081845;28;20202;-71
2020/12/12 00:39:04;;;;;;;15.33;8.77;;;4.60;99.90;;;;;;5072555;28;20265;-71
2020/12/12 00:41:34;;;;;;;14.17;9.10;;;4.70;99.90;;;;;;5073551;28;20252;-72
2020/12/12 00:44:01;;;;;;;16.67;9.60;;;4.70;99.90;;;;;;5080768;28;20235;-71
2020/12/12 00:46:28;;;;;;;15.47;9.27;;;4.70;99.90;;;;;;5072809;28;20209;-72
2020/12/12 00:48:54;;;;;;;14.63;9.17;;;4.70;99.90;;;;;;5068823;28;20584;-72
2020/12/12 00:51:21;;;;;;;16.17;8.80;;;4.70;99.90;;;;;;5072750;28;20200;-72
2020/12/12 00:53:48;;;;;;;18.50;8.93;;;4.70;99.90;;;;;;5072815;28;20661;-72
2020/12/12 00:56:16;;;;;;;17.00;9.40;;;4.70;99.90;;;;;;5075237;28;20353;-72
2020/12/12 00:58:43;;;;;;;12.93;8.27;;;4.70;99.90;;;;;;5087142;28;20209;-72
2020/12/12 01:01:10;;;;;;;12.97;8.53;;;4.70;99.90;;;;;;5074908;28;20669;-72
2020/12/12 01:03:38;;;;;;;15.27;9.17;;;4.80;99.90;;;;;;5082497;28;20645;-72
2020/12/12 01:06:09;;;;;;;12.83;8.60;;;4.70;99.90;;;;;;5077632;28;20201;-72
2020/12/12 01:08:35;;;;;;;13.10;8.10;;;4.60;99.90;;;;;;5078186;28;20279;-71
2020/12/12 01:11:03;;;;;;;15.47;8.80;;;4.70;99.90;;;;;;5071688;28;20205;-73
2020/12/12 01:13:29;;;;;;;13.10;8.47;;;4.60;99.90;;;;;;5075379;28;20300;-73
2020/12/12 01:15:55;;;;;;;14.53;8.87;;;4.60;99.90;;;;;;5075298;28;20214;-71
2020/12/12 01:18:22;;;;;;;13.33;8.70;;;4.60;99.90;;;;;;5086130;28;20288;-72
2020/12/12 01:20:48;;;;;;;15.90;9.33;;;4.60;99.90;;;;;;5072167;28;20316;-72
2020/12/12 01:23:14;;;;;;;14.30;8.87;;;4.60;99.90;;;;;;5077373;28;20292;-71
2020/12/12 01:25:41;;;;;;;14.43;9.53;;;4.60;99.90;;;;;;5075230;28;20257;-72
2020/12/12 01:28:08;;;;;;;15.67;8.53;;;4.60;99.90;;;;;;5077730;28;20212;-72
2020/12/12 01:30:35;;;;;;;13.33;8.73;;;4.60;99.90;;;;;;5072224;28;20646;-72
2020/12/12 01:33:01;;;;;;;15.40;9.20;;;4.50;99.90;;;;;;5071938;28;20215;-72
2020/12/12 01:35:27;;;;;;;16.67;9.07;;;4.60;99.90;;;;;;5067338;28;20209;-72
2020/12/12 01:37:54;;;;;;;14.37;9.53;;;4.60;99.90;;;;;;5073130;28;20202;-72
2020/12/12 01:40:20;;;;;;;15.03;9.33;;;4.60;99.90;;;;;;5074251;28;20235;-72
2020/12/12 01:42:47;;;;;;;15.40;9.47;;;4.60;99.90;;;;;;5070659;28;20235;-72
2020/12/12 01:45:14;;;;;;;16.70;9.10;;;4.60;99.90;;;;;;5070011;28;20546;-72
2020/12/12 01:47:40;;;;;;;14.83;9.27;;;4.60;99.90;;;;;;5073736;28;20224;-70
2020/12/12 01:50:07;;;;;;;15.73;9.93;;;4.50;99.90;;;;;;5071969;28;20643;-71
2020/12/12 01:52:34;;;;;;;14.23;9.20;;;4.50;99.90;;;;;;5079622;28;20198;-71
2020/12/12 01:55:01;;;;;;;16.07;9.37;;;4.50;99.90;;;;;;5079190;28;20697;-71
2020/12/12 01:57:27;;;;;;;16.10;9.53;;;4.50;99.90;;;;;;5064420;28;20205;-70
2020/12/12 01:59:54;;;;;;;18.13;10.17;;;4.50;99.90;;;;;;5088289;28;20211;-71
2020/12/12 02:02:25;;;;;;;13.83;9.33;;;4.50;99.90;;;;;;5069922;28;20689;-73
2020/12/12 02:04:54;;;;;;;18.07;10.10;;;4.50;99.90;;;;;;5075268;28;20234;-73
2020/12/12 02:07:22;;;;;;;17.03;10.70;;;4.50;99.90;;;;;;5072085;28;20209;-72
2020/12/12 02:09:49;;;;;;;15.63;9.13;;;4.50;99.90;;;;;;5082419;28;20205;-71
2020/12/12 02:12:17;;;;;;;14.80;10.30;;;4.50;99.90;;;;;;5071264;28;20221;-72
2020/12/12 02:14:43;;;;;;;15.50;9.13;;;4.50;99.90;;;;;;5079293;28;20215;-72
2020/12/12 02:17:11;;;;;;;16.67;10.67;;;4.40;99.90;;;;;;5080530;28;20204;-71
2020/12/12 02:19:38;;;;;;;17.53;10.33;;;4.40;99.90;;;;;;5075947;28;20634;-71
2020/12/12 02:22:08;;;;;;;17.67;10.90;;;4.40;99.90;;;;;;5079189;28;20591;-71
2020/12/12 02:24:36;;;;;;;20.10;11.30;;;4.30;99.90;;;;;;5075267;28;20212;-73
2020/12/12 02:27:04;;;;;;;18.40;10.73;;;4.30;99.90;;;;;;5081310;28;20204;-71
2020/12/12 02:29:41;;;;;;;20.33;11.60;;;4.30;99.90;;;;;;5081759;28;20296;-72
2020/12/12 02:32:08;;;;;;;18.07;11.67;;;4.30;99.90;;;;;;5070157;28;20657;-72
2020/12/12 02:34:34;;;;;;;18.20;10.43;;;4.20;99.90;;;;;;5082240;28;20638;-72
2020/12/12 02:37:01;;;;;;;19.63;11.43;;;4.20;99.90;;;;;;5082221;28;20299;-72
2020/12/12 02:39:28;;;;;;;19.83;11.47;;;4.20;99.90;;;;;;5083976;28;20599;-73
2020/12/12 02:41:55;;;;;;;19.23;11.73;;;4.20;99.90;;;;;;5072507;28;20233;-72
2020/12/12 02:44:21;;;;;;;20.77;12.00;;;4.20;99.90;;;;;;5080114;28;20205;-72
2020/12/12 02:46:47;;;;;;;22.83;13.63;;;4.20;99.90;;;;;;5073380;28;20209;-73
2020/12/12 02:49:14;;;;;;;22.63;13.23;;;4.10;99.90;;;;;;5080399;28;20197;-72
2020/12/12 02:51:40;;;;;;;21.17;12.77;;;4.20;99.90;;;;;;5072141;28;20731;-73
2020/12/12 02:54:07;;;;;;;23.70;12.27;;;4.10;99.90;;;;;;5080114;28;20212;-73
2020/12/12 02:56:35;;;;;;;20.90;12.37;;;4.20;99.90;;;;;;5072123;28;20207;-73
2020/12/12 02:59:01;;;;;;;26.37;13.63;;;4.20;99.90;;;;;;5087516;28;20204;-72
2020/12/12 03:01:28;;;;;;;27.00;14.67;;;4.20;99.90;;;;;;5084395;28;20224;-73
2020/12/12 03:03:54;;;;;;;28.60;14.27;;;4.10;99.90;;;;;;5074746;28;20220;-74
2020/12/12 03:06:21;;;;;;;28.70;13.87;;;4.10;99.90;;;;;;5073660;28;20212;-73
2020/12/12 03:08:47;;;;;;;26.83;14.07;;;4.10;99.90;;;;;;5076905;28;20205;-72
2020/12/12 03:11:13;;;;;;;27.87;14.90;;;4.10;99.90;;;;;;5085995;28;20312;-73
2020/12/12 03:13:41;;;;;;;28.03;14.40;;;4.10;99.90;;;;;;5084344;28;20205;-73
2020/12/12 03:16:07;;;;;;;28.07;14.83;;;4.10;99.90;;;;;;5073519;28;20714;-73
2020/12/12 03:18:34;;;;;;;26.60;14.40;;;4.10;99.90;;;;;;5071888;28;20296;-72
2020/12/12 03:21:00;;;;;;;26.90;15.10;;;4.10;99.90;;;;;;5081496;28;20226;-73
2020/12/12 03:23:26;;;;;;;25.87;14.17;;;4.10;99.90;;;;;;5088538;28;20218;-73
2020/12/12 03:25:53;;;;;;;24.87;13.33;;;4.10;99.90;;;;;;5079486;28;20213;-73
2020/12/12 03:28:19;;;;;;;25.37;12.40;;;4.10;99.90;;;;;;5079330;28;20320;-72
2020/12/12 03:30:46;;;;;;;23.63;13.00;;;4.10;99.90;;;;;;5088371;28;20291;-72
2020/12/12 03:33:13;;;;;;;27.20;14.33;;;4.10;99.90;;;;;;5088202;28;20641;-72
2020/12/12 03:35:39;;;;;;;23.33;13.07;;;4.10;99.90;;;;;;5082826;28;20752;-74
2020/12/12 03:38:06;;;;;;;26.03;13.43;;;4.00;99.90;;;;;;5078897;28;20197;-73
2020/12/12 03:40:32;;;;;;;25.17;14.63;;;4.00;99.90;;;;;;5089515;28;20315;-73
2020/12/12 03:42:58;;;;;;;22.40;12.70;;;4.00;99.90;;;;;;5078992;28;20608;-74
2020/12/12 03:45:25;;;;;;;24.03;13.00;;;4.00;99.90;;;;;;5073709;28;20202;-73
2020/12/12 03:47:52;;;;;;;23.63;13.13;;;4.00;99.90;;;;;;5072357;28;20209;-72
2020/12/12 03:50:27;;;;;;;24.13;13.27;;;4.00;99.90;;;;;;5083723;28;20215;-72
2020/12/12 03:52:53;;;;;;;22.43;12.83;;;4.00;99.90;;;;;;5078371;28;20200;-72
2020/12/12 03:55:20;;;;;;;22.13;12.53;;;4.00;99.90;;;;;;5089405;28;20200;-73
2020/12/12 03:57:46;;;;;;;21.67;12.77;;;4.00;99.90;;;;;;5076135;28;20207;-73
2020/12/12 04:00:12;;;;;;;23.03;12.77;;;4.00;99.90;;;;;;5085576;28;20209;-74
2020/12/12 04:02:39;;;;;;;18.67;12.07;;;3.90;99.90;;;;;;5079567;28;20227;-74
2020/12/12 04:05:06;;;;;;;20.87;12.47;;;3.90;99.90;;;;;;5082190;28;20695;-73
2020/12/12 04:07:32;;;;;;;20.20;10.67;;;3.90;99.90;;;;;;5078377;28;20205;-74
2020/12/12 04:09:58;;;;;;;23.37;13.37;;;3.90;99.90;;;;;;5078572;28;20722;-73
2020/12/12 04:12:25;;;;;;;22.27;12.00;;;3.90;99.90;;;;;;5084186;28;20315;-73
2020/12/12 04:14:51;;;;;;;20.40;12.57;;;4.00;99.90;;;;;;5090137;28;20203;-73
2020/12/12 04:17:17;;;;;;;20.03;12.43;;;4.00;99.90;;;;;;5086149;28;20207;-73
2020/12/12 04:19:44;;;;;;;19.73;12.20;;;4.00;99.90;;;;;;5086367;28;20293;-73
2020/12/12 04:22:11;;;;;;;22.93;12.87;;;4.00;99.90;;;;;;5072587;28;20229;-72
2020/12/12 04:24:37;;;;;;;19.67;11.93;;;3.90;99.90;;;;;;5089849;28;20236;-72
2020/12/12 04:27:03;;;;;;;24.50;12.60;;;4.00;99.90;;;;;;5083680;28;20219;-73
2020/12/12 04:29:30;;;;;;;25.60;13.33;;;3.90;99.90;;;;;;5089910;28;20203;-73
2020/12/12 04:31:56;;;;;;;20.43;12.03;;;4.00;99.90;;;;;;5085448;28;20197;-72
2020/12/12 04:34:22;;;;;;;23.03;12.70;;;3.90;99.90;;;;;;5079596;28;20197;-73
2020/12/12 04:36:49;;;;;;;24.77;13.33;;;3.90;99.90;;;;;;5073847;28;20720;-73
2020/12/12 04:39:16;;;;;;;23.60;13.27;;;3.90;99.90;;;;;;5086246;28;20315;-73
2020/12/12 04:41:43;;;;;;;24.57;13.13;;;3.90;99.90;;;;;;5078997;28;20237;-73
2020/12/12 04:44:10;;;;;;;21.17;12.70;;;3.90;99.90;;;;;;5076115;28;20646;-72
2020/12/12 04:46:38;;;;;;;23.87;13.27;;;3.90;99.90;;;;;;5080486;28;20213;-72
2020/12/12 04:49:04;;;;;;;25.27;13.67;;;3.90;99.90;;;;;;5082568;28;20217;-72
2020/12/12 04:51:31;;;;;;;23.40;13.47;;;3.90;99.90;;;;;;5084328;28;20207;-73
2020/12/12 04:53:58;;;;;;;26.50;13.23;;;3.90;99.90;;;;;;5072712;28;20207;-73
2020/12/12 04:56:26;;;;;;;25.43;13.63;;;3.90;99.90;;;;;;5077060;28;20198;-73
2020/12/12 04:58:53;;;;;;;26.87;14.33;;;3.80;99.90;;;;;;5073502;28;20205;-73
2020/12/12 05:01:20;;;;;;;24.87;13.20;;;3.80;99.90;;;;;;5074362;28;20220;-73
2020/12/12 05:03:47;;;;;;;25.17;14.33;;;3.80;99.90;;;;;;5072944;28;20296;-74
2020/12/12 05:06:13;;;;;;;29.80;14.43;;;3.80;99.90;;;;;;5086552;28;20236;-74
2020/12/12 05:08:40;;;;;;;28.60;13.70;;;3.80;99.90;;;;;;5079077;28;20215;-74
2020/12/12 05:11:07;;;;;;;24.43;12.77;;;3.70;99.90;;;;;;5079209;28;20536;-74
2020/12/12 05:13:34;;;;;;;29.17;14.90;;;3.70;99.90;;;;;;5073299;28;20200;-74
2020/12/12 05:16:01;;;;;;;29.27;14.10;;;3.70;99.90;;;;;;5068999;28;20258;-72
2020/12/12 05:18:27;;;;;;;24.47;12.43;;;3.60;99.90;;;;;;5082954;28;20292;-71
2020/12/12 05:20:54;;;;;;;28.97;14.20;;;3.60;99.90;;;;;;5089986;28;20239;-72
2020/12/12 05:23:22;;;;;;;26.67;14.93;;;3.60;99.90;;;;;;5068692;28;20657;-72
2020/12/12 05:25:50;;;;;;;27.13;15.03;;;3.50;99.90;;;;;;5070830;28;20661;-72
2020/12/12 05:28:18;;;;;;;26.80;13.37;;;3.50;99.90;;;;;;5074992;28;20301;-73
2020/12/12 05:30:46;;;;;;;28.93;14.57;;;3.50;99.90;;;;;;5075165;28;20622;-74
2020/12/12 05:33:16;;;;;;;26.47;13.83;;;3.50;99.90;;;;;;5077737;28;20201;-73
2020/12/12 05:35:44;;;;;;;25.87;13.87;;;3.50;99.90;;;;;;5071946;28;20571;-73
2020/12/12 05:38:12;;;;;;;24.57;13.10;;;3.40;99.90;;;;;;5083879;28;20544;-72
2020/12/12 05:40:39;;;;;;;27.47;13.27;;;3.40;99.90;;;;;;5076923;28;20786;-72
2020/12/12 05:43:07;;;;;;;29.13;13.50;;;3.30;99.90;;;;;;5072958;28;20243;-72
2020/12/12 05:45:33;;;;;;;32.40;14.40;;;3.30;99.90;;;;;;5075587;28;20665;-72
2020/12/12 05:48:01;;;;;;;29.33;15.17;;;3.20;99.90;;;;;;5076177;28;20211;-72
2020/12/12 05:50:27;;;;;;;29.53;14.20;;;3.20;99.90;;;;;;5084775;28;20829;-72
2020/12/12 05:52:55;;;;;;;23.53;13.53;;;3.20;99.90;;;;;;5071638;28;20212;-72
2020/12/12 05:55:22;;;;;;;29.00;14.87;;;3.10;99.90;;;;;;5086265;28;20204;-74
2020/12/12 05:57:52;;;;;;;27.20;14.43;;;3.10;99.90;;;;;;5080125;28;20208;-74
2020/12/12 06:00:21;;;;;;;32.10;14.30;;;3.10;99.90;;;;;;5077912;28;20213;-72
2020/12/12 06:02:53;;;;;;;27.80;15.10;;;3.10;99.90;;;;;;5078923;28;20245;-73
2020/12/12 06:05:25;;;;;;;30.43;14.57;;;3.10;99.90;;;;;;5083492;28;20205;-73
2020/12/12 06:07:55;;;;;;;23.70;13.23;;;3.10;99.90;;;;;;5073391;28;20205;-73
2020/12/12 06:10:26;;;;;;;29.60;13.77;;;3.10;99.90;;;;;;5086220;28;20201;-73
2020/12/12 06:13:00;;;;;;;28.87;14.40;;;3.10;99.90;;;;;;5074163;28;20583;-73
2020/12/12 06:15:57;;;;;;;28.43;13.83;;;3.10;99.90;;;;;;5080908;28;20207;-72
2020/12/12 06:18:31;;;;;;;27.43;14.17;;;3.00;99.90;;;;;;5079835;28;20201;-72
2020/12/12 06:21:06;;;;;;;24.70;13.33;;;3.00;99.90;;;;;;5082264;28;20226;-72
2020/12/12 06:23:36;;;;;;;27.33;15.17;;;3.00;99.90;;;;;;5078323;28;20195;-72
2020/12/12 06:26:03;;;;;;;27.43;14.63;;;3.00;99.90;;;;;;5072709;28;20209;-72
2020/12/12 06:28:31;;;;;;;31.07;14.50;;;3.00;99.90;;;;;;5078218;28;20204;-73
2020/12/12 06:30:59;;;;;;;26.50;14.33;;;2.90;99.90;;;;;;5083898;28;20209;-74
2020/12/12 06:33:26;;;;;;;28.83;13.70;;;3.00;99.90;;;;;;5084682;28;20291;-72
2020/12/12 06:35:54;;;;;;;28.23;13.80;;;2.90;99.90;;;;;;5078303;28;20272;-73
2020/12/12 06:38:23;;;;;;;28.93;14.00;;;3.00;99.90;;;;;;5080307;28;20197;-73
2020/12/12 06:40:51;;;;;;;26.63;13.67;;;2.90;99.90;;;;;;5081040;28;20251;-73
2020/12/12 06:43:32;;;;;;;24.53;12.67;;;2.90;99.90;;;;;;5074249;28;20205;-73
2020/12/12 06:46:00;;;;;;;24.73;13.27;;;2.90;99.90;;;;;;5074752;28;20201;-72
2020/12/12 06:48:28;;;;;;;27.43;13.43;;;2.90;99.90;;;;;;5080559;28;20571;-73
2020/12/12 06:50:55;;;;;;;21.77;12.17;;;2.80;99.90;;;;;;5083630;28;20642;-73
2020/12/12 06:53:25;;;;;;;21.97;12.93;;;2.80;99.90;;;;;;5075751;28;20215;-74
2020/12/12 06:56:12;;;;;;;19.13;11.03;;;2.80;99.90;;;;;;5078256;28;20292;-72
2020/12/12 06:58:39;;;;;;;17.97;11.30;;;2.80;99.90;;;;;;5078997;28;20310;-73
2020/12/12 07:01:38;;;;;;;18.33;11.77;;;2.80;99.90;;;;;;5073445;28;20256;-73
2020/12/12 07:04:06;;;;;;;18.10;10.23;;;2.80;99.90;;;;;;5024574;28;20203;-73
2020/12/12 07:06:34;;;;;;;16.83;10.20;;;2.80;99.90;;;;;;5018668;28;20288;-72
2020/12/12 07:09:04;;;;;;;17.73;9.57;;;2.80;99.90;;;;;;5019069;28;20203;-73
2020/12/12 07:11:32;;;;;;;14.03;8.90;;;2.70;99.90;;;;;;5022918;28;20769;-72
2020/12/12 07:13:59;;;;;;;14.70;9.70;;;2.70;99.90;;;;;;5010972;28;20250;-72
2020/12/12 07:16:26;;;;;;;14.93;9.67;;;2.80;99.90;;;;;;5082527;28;20720;-73
2020/12/12 07:18:54;;;;;;;13.07;8.30;;;2.70;99.90;;;;;;5084505;28;20232;-72
2020/12/12 07:21:21;;;;;;;12.50;8.60;;;2.70;99.90;;;;;;5073016;28;20256;-73
2020/12/12 07:23:49;;;;;;;12.33;7.77;;;2.70;99.90;;;;;;5077441;28;20295;-73
2020/12/12 07:26:16;;;;;;;12.50;7.77;;;2.70;99.90;;;;;;5075304;28;20328;-73
2020/12/12 07:28:43;;;;;;;11.10;8.20;;;2.70;99.90;;;;;;5077612;28;20304;-73
2020/12/12 07:31:09;;;;;;;12.00;7.90;;;2.70;99.90;;;;;;5077151;28;20296;-72
2020/12/12 07:33:36;;;;;;;16.00;8.10;;;2.70;99.90;;;;;;5087943;28;20295;-72
2020/12/12 07:36:03;;;;;;;13.87;7.60;;;2.70;99.90;;;;;;5079509;28;20209;-73
2020/12/12 07:38:40;;;;;;;11.57;7.33;;;2.70;99.90;;;;;;5079083;28;20628;-79
2020/12/12 07:41:11;;;;;;;11.40;7.40;;;2.70;99.90;;;;;;5092803;28;20198;-81
2020/12/12 07:43:52;;;;;;;10.07;7.80;;;2.70;99.90;;;;;;5092655;28;20213;-80
2020/12/12 07:46:18;;;;;;;12.07;6.97;;;2.70;99.90;;;;;;5090539;28;20651;-79
2020/12/12 07:48:45;;;;;;;11.73;6.60;;;2.70;99.90;;;;;;5090077;28;20205;-79
2020/12/12 07:51:13;;;;;;;15.53;7.80;;;2.70;99.90;;;;;;5095741;28;20210;-79
2020/12/12 07:53:39;;;;;;;10.77;6.40;;;2.70;99.90;;;;;;5092460;28;20212;-79
2020/12/12 07:56:08;;;;;;;12.77;6.90;;;2.70;99.90;;;;;;5094704;28;20205;-80
2020/12/12 07:58:37;;;;;;;14.77;7.90;;;2.70;99.90;;;;;;5083710;28;20566;-77
2020/12/12 08:01:05;;;;;;;14.00;7.93;;;2.60;99.90;;;;;;5087488;28;20201;-79
2020/12/12 08:03:33;;;;;;;11.57;7.83;;;2.70;99.90;;;;;;5078394;28;20300;-76
2020/12/12 08:06:05;;;;;;;15.00;8.40;;;2.60;99.90;;;;;;5087157;28;20211;-76
2020/12/12 08:08:33;;;;;;;12.20;7.20;;;2.60;99.90;;;;;;5085289;28;20248;-79
2020/12/12 08:11:00;;;;;;;10.70;7.67;;;2.60;99.90;;;;;;5089041;28;20217;-76
2020/12/12 08:13:28;;;;;;;13.07;7.63;;;2.50;99.90;;;;;;5094704;28;20205;-79
2020/12/12 08:16:10;;;;;;;11.30;7.13;;;2.60;99.90;;;;;;5086630;28;20205;-79
2020/12/12 08:18:37;;;;;;;10.90;6.67;;;2.60;99.90;;;;;;5087335;28;20227;-80
2020/12/12 08:21:13;;;;;;;11.43;7.17;;;2.70;99.90;;;;;;5086138;28;20205;-81
2020/12/12 08:23:40;;;;;;;10.57;7.50;;;2.50;99.90;;;;;;5091338;28;20208;-79
2020/12/12 08:26:09;;;;;;;12.50;7.23;;;2.60;99.90;;;;;;5096715;28;20236;-80
2020/12/12 08:28:36;;;;;;;13.13;8.37;;;2.60;99.90;;;;;;5082947;28;20217;-80
2020/12/12 08:31:14;;;;;;;11.77;7.33;;;2.60;99.90;;;;;;5077313;28;20662;-74
2020/12/12 08:33:45;;;;;;;10.33;7.37;;;2.60;99.90;;;;;;5088079;28;20214;-80
2020/12/12 08:36:18;;;;;;;10.80;7.00;;;2.60;99.90;;;;;;5090955;28;20240;-78
2020/12/12 08:38:52;;;;;;;11.47;7.43;;;2.60;99.90;;;;;;5082441;28;20209;-72
2020/12/12 08:41:19;;;;;;;12.37;7.63;;;2.60;99.90;;;;;;5075715;28;20220;-71
2020/12/12 08:43:46;;;;;;;10.27;6.60;;;2.60;99.90;;;;;;5073936;28;20208;-71
2020/12/12 08:46:16;;;;;;;10.20;7.10;;;2.60;99.90;;;;;;5080861;28;20291;-71
2020/12/12 08:48:44;;;;;;;12.20;7.50;;;2.70;99.90;;;;;;5075922;28;20213;-71
2020/12/12 08:51:12;;;;;;;11.40;7.57;;;2.60;99.90;;;;;;5074979;28;20255;-70
2020/12/12 08:53:40;;;;;;;10.70;6.53;;;2.70;99.90;;;;;;5075926;28;20209;-74
2020/12/12 08:56:12;;;;;;;10.47;7.23;;;2.70;99.90;;;;;;5071052;28;20263;-74
2020/12/12 08:58:41;;;;;;;11.50;7.87;;;2.70;99.90;;;;;;5073101;28;20240;-74
2020/12/12 09:01:23;;;;;;;10.70;7.63;;;2.70;99.90;;;;;;5071933;28;20209;-71
2020/12/12 09:04:00;;;;;;;11.67;7.53;;;2.60;99.90;;;;;;5072629;28;20215;-72
2020/12/12 09:06:29;;;;;;;9.57;7.10;;;2.60;99.90;;;;;;5067787;28;20299;-71
2020/12/12 09:09:08;;;;;;;10.57;7.70;;;2.60;99.90;;;;;;5072113;28;20221;-72
2020/12/12 09:11:35;;;;;;;9.80;7.27;;;2.60;99.90;;;;;;5076331;28;20772;-71
2020/12/12 09:14:03;;;;;;;9.80;7.23;;;2.60;99.90;;;;;;5072132;28;20331;-76
2020/12/12 09:16:30;;;;;;;11.10;7.30;;;2.50;99.90;;;;;;5084269;28;20201;-73
2020/12/12 09:18:57;;;;;;;12.13;7.63;;;2.60;99.90;;;;;;5076226;28;20208;-71
2020/12/12 09:21:24;;;;;;;11.17;7.53;;;2.50;99.90;;;;;;5081472;28;20221;-78
2020/12/12 09:23:51;;;;;;;12.70;7.67;;;2.50;99.90;;;;;;5076055;28;20595;-73
2020/12/12 09:26:20;;;;;;;10.57;7.50;;;2.50;99.90;;;;;;5078172;28;20244;-73
2020/12/12 09:28:47;;;;;;;13.10;7.77;;;2.60;99.90;;;;;;5089140;28;20212;-72
2020/12/12 09:31:15;;;;;;;11.27;7.67;;;2.60;99.90;;;;;;5077844;28;20295;-70
2020/12/12 09:33:43;;;;;;;11.17;7.63;;;2.60;99.90;;;;;;5069344;28;20620;-74
2020/12/12 09:36:09;;;;;;;11.87;8.20;;;2.60;99.90;;;;;;5074985;28;20210;-73
2020/12/12 09:38:36;;;;;;;10.07;7.10;;;2.70;99.90;;;;;;5082889;28;20255;-73
2020/12/12 09:41:03;;;;;;;10.97;7.67;;;2.60;99.90;;;;;;5074689;28;20664;-71
2020/12/12 09:43:29;;;;;;;10.20;7.33;;;2.70;99.90;;;;;;5066326;28;20201;-72
2020/12/12 09:45:56;;;;;;;13.33;7.87;;;2.70;99.90;;;;;;5075601;28;20316;-71
2020/12/12 09:48:23;;;;;;;12.33;7.50;;;2.70;99.90;;;;;;5078021;28;20205;-72
2020/12/12 09:57:52;;;;;;;8.67;6.73;;;2.70;99.90;;;;;;5058640;28;20212;-73
2020/12/12 10:00:19;;;;;;;10.40;7.00;;;2.70;99.90;;;;;;5071075;28;20294;-72
2020/12/12 10:02:45;;;;;;;10.53;7.50;;;2.80;99.90;;;;;;5073319;28;20224;-69
2020/12/12 10:05:11;;;;;;;12.60;7.40;;;2.80;99.90;;;;;;5070854;28;20211;-71
2020/12/12 10:18:21;;;;;;;13.13;7.70;;;2.80;99.90;;;;;;5073302;28;20314;-74
2020/12/12 10:24:32;;;;;;;12.93;8.17;;;2.80;99.90;;;;;;5071594;28;20196;-72
2020/12/12 10:47:54;;;;;;;10.80;7.90;;;3.00;99.90;;;;;;5045054;28;20378;-71
2020/12/12 10:50:22;;;;;;;11.00;7.83;;;3.00;99.90;;;;;;5025888;28;20207;-71
2020/12/12 10:52:49;;;;;;;11.60;8.10;;;3.00;99.90;;;;;;5028834;28;20207;-72
2020/12/12 10:55:15;;;;;;;10.77;7.97;;;2.90;99.90;;;;;;5042302;28;20206;-72
2020/12/12 10:57:42;;;;;;;11.73;7.93;;;3.00;99.90;;;;;;5034053;28;20250;-71
2020/12/12 11:00:10;;;;;;;11.87;7.60;;;2.90;99.90;;;;;;5025463;28;20206;-71
2020/12/12 11:02:37;;;;;;;9.80;7.20;;;3.00;99.90;;;;;;5026846;28;20816;-72
2020/12/12 11:05:06;;;;;;;11.80;7.43;;;3.00;99.90;;;;;;5029530;28;20594;-72
2020/12/12 11:07:32;;;;;;;10.37;7.33;;;3.00;99.90;;;;;;5036360;28;20238;-72
2020/12/12 11:09:59;;;;;;;11.57;7.87;;;3.00;99.90;;;;;;5028954;28;20217;-72
2020/12/12 11:12:25;;;;;;;9.93;7.23;;;3.00;99.90;;;;;;5034563;28;20254;-70
2020/12/12 11:14:55;;;;;;;11.60;8.17;;;3.00;99.90;;;;;;5032190;28;20232;-70
2020/12/12 11:17:21;;;;;;;11.77;7.73;;;3.00;99.90;;;;;;5034679;28;20269;-71
2020/12/12 11:19:48;;;;;;;10.53;7.57;;;3.00;99.90;;;;;;5034618;28;20630;-71
2020/12/12 11:22:16;;;;;;;9.90;7.73;;;3.00;99.90;;;;;;5035335;28;20229;-70
2020/12/12 11:24:42;;;;;;;10.63;7.83;;;3.00;99.90;;;;;;5033691;28;20277;-73
2020/12/12 11:27:08;;;;;;;10.23;7.53;;;3.10;99.90;;;;;;5034020;28;20265;-71
2020/12/12 11:29:35;;;;;;;9.57;7.10;;;3.10;99.90;;;;;;5029057;28;20574;-72
2020/12/12 11:32:01;;;;;;;11.27;7.43;;;3.10;99.90;;;;;;5036020;28;20605;-73
2020/12/12 11:34:31;;;;;;;12.03;8.07;;;3.10;99.90;;;;;;5035293;28;20233;-74
2020/12/12 11:39:49;;;;;;;10.83;7.83;;;3.00;99.90;;;;;;5027437;28;20260;-73
2020/12/12 11:42:35;;;;;;;12.60;8.13;;;3.10;99.90;;;;;;5030841;28;20632;-73
2020/12/12 11:45:20;;;;;;;9.63;7.20;;;3.10;99.90;;;;;;5030882;28;20225;-73
2020/12/12 11:47:46;;;;;;;9.83;7.53;;;3.10;99.90;;;;;;5021225;28;20661;-72
2020/12/12 11:50:13;;;;;;;11.80;7.30;;;3.10;99.90;;;;;;5076843;28;20267;-73
2020/12/12 11:52:42;;;;;;;9.87;7.30;;;3.20;99.90;;;;;;5089334;28;20292;-72
2020/12/12 11:55:09;;;;;;;11.83;8.00;;;3.20;99.90;;;;;;5072807;28;20246;-71
2020/12/12 11:57:36;;;;;;;11.07;7.13;;;3.20;99.90;;;;;;5074008;28;20227;-76
2020/12/12 12:00:08;;;;;;;16.47;10.07;;;3.20;99.90;;;;;;5076700;28;20241;-73
2020/12/12 12:02:34;;;;;;;9.63;7.73;;;3.30;99.90;;;;;;5067958;28;20214;-74
2020/12/12 12:05:01;;;;;;;9.57;7.20;;;3.20;99.90;;;;;;5073734;28;20301;-76
2020/12/12 12:07:27;;;;;;;10.80;8.03;;;3.20;99.90;;;;;;5077909;28;20255;-77
2020/12/12 12:10:04;;;;;;;9.50;7.23;;;3.20;99.90;;;;;;5074384;28;20258;-75
2020/12/12 12:12:31;;;;;;;14.03;8.07;;;3.30;99.90;;;;;;5074200;28;20222;-76
2020/12/12 12:14:58;;;;;;;10.37;7.43;;;3.20;99.90;;;;;;5091337;28;20232;-76
2020/12/12 12:17:25;;;;;;;11.13;7.80;;;3.20;99.90;;;;;;5081155;28;20542;-76
2020/12/12 12:19:51;;;;;;;10.53;7.53;;;3.20;99.90;;;;;;5077552;28;20252;-77
2020/12/12 12:22:18;;;;;;;11.17;8.30;;;3.20;99.90;;;;;;5079281;28;20268;-77
2020/12/12 12:24:44;;;;;;;11.47;8.00;;;3.20;99.90;;;;;;5084992;28;20644;-73
2020/12/12 12:27:11;;;;;;;11.03;7.70;;;3.20;99.90;;;;;;5080709;28;20205;-77
2020/12/12 12:29:38;;;;;;;10.77;7.33;;;3.20;99.90;;;;;;5086577;28;20266;-78
2020/12/12 12:32:05;;;;;;;11.23;8.40;;;3.10;99.90;;;;;;5075695;28;20696;-78
2020/12/12 12:34:31;;;;;;;14.63;7.97;;;3.10;99.90;;;;;;5088285;28;20228;-77
2020/12/12 12:36:58;;;;;;;10.40;7.73;;;3.10;99.90;;;;;;5089207;28;20213;-73
2020/12/12 12:39:24;;;;;;;10.83;8.40;;;3.10;99.90;;;;;;5074921;28;20223;-70
2020/12/12 12:41:51;;;;;;;13.33;7.90;;;3.10;99.90;;;;;;5073190;28;20591;-71
2020/12/12 12:44:18;;;;;;;11.77;8.07;;;3.10;99.90;;;;;;5076102;28;20209;-71
2020/12/12 12:46:49;;;;;;;11.83;8.40;;;3.20;99.90;;;;;;5080014;28;20208;-70
2020/12/12 12:49:18;;;;;;;11.77;7.80;;;3.20;99.90;;;;;;5074441;28;20237;-72
2020/12/12 12:51:45;;;;;;;11.20;8.07;;;3.10;99.90;;;;;;5071219;28;20673;-70
2020/12/12 12:54:11;;;;;;;12.23;8.70;;;3.10;99.90;;;;;;5088859;28;20246;-71
2020/12/12 12:56:38;;;;;;;14.03;9.00;;;3.20;99.90;;;;;;5077754;28;20205;-71
2020/12/12 12:59:05;;;;;;;11.63;7.83;;;3.20;99.90;;;;;;5076662;28;20288;-71
2020/12/12 13:01:31;;;;;;;10.77;8.27;;;3.20;99.90;;;;;;5081858;28;20657;-69
2020/12/12 13:03:59;;;;;;;10.30;7.80;;;3.20;99.90;;;;;;5079884;28;20208;-71
2020/12/12 13:06:26;;;;;;;9.87;7.30;;;3.20;99.90;;;;;;5068115;28;20202;-69
2020/12/12 13:08:56;;;;;;;15.13;8.87;;;3.20;99.90;;;;;;5073213;28;20235;-72
2020/12/12 13:11:23;;;;;;;12.17;8.60;;;3.20;99.90;;;;;;5070317;28;20287;-72
2020/12/12 13:13:49;;;;;;;12.60;8.40;;;3.20;99.90;;;;;;5073068;28;20209;-71
2020/12/12 13:16:16;;;;;;;12.27;8.67;;;3.20;99.90;;;;;;5071147;28;20212;-70
2020/12/12 13:18:45;;;;;;;12.97;8.53;;;3.30;99.90;;;;;;5074676;28;20210;-71
2020/12/12 13:21:16;;;;;;;12.03;7.77;;;3.30;99.90;;;;;;5069113;28;20209;-71
2020/12/12 13:23:43;;;;;;;13.80;9.70;;;3.30;99.90;;;;;;5064145;28;20599;-71
2020/12/12 13:26:10;;;;;;;12.27;8.80;;;3.30;99.90;;;;;;5067994;28;20205;-73
2020/12/12 13:29:38;;;;;;;14.20;8.43;;;3.30;99.90;;;;;;5074215;28;20209;-69
2020/12/12 13:31:37;;;;;;;14.00;8.50;;;3.30;99.90;;;;;;5074058;28;20205;-72
2020/12/12 13:34:06;;;;;;;13.53;8.67;;;3.20;99.90;;;;;;5075041;28;20252;-72